createdAt,value
2023-01-07T00:02:22.560Z,5.43
2023-01-07T00:04:49.293Z,5.55
2023-01-07T00:07:15.961Z,5.35
2023-01-07T00:09:42.723Z,5.41
2023-01-07T00:12:09.402Z,5.42
2023-01-07T00:14:36.295Z,5.63
2023-01-07T00:17:03.474Z,5.46
2023-01-07T00:19:30.454Z,5.70
2023-01-07T00:21:57.167Z,4.78
2023-01-07T00:24:23.856Z,5.08
2023-01-07T00:26:50.586Z,5.17
2023-01-07T00:29:18.760Z,5.24
2023-01-07T00:31:45.641Z,5.18
2023-01-07T00:34:13.713Z,4.73
2023-01-07T00:36:42.344Z,5.03
2023-01-07T00:39:19.555Z,5.23
2023-01-07T00:42:04.594Z,5.33
2023-01-07T00:44:31.701Z,5.30
2023-01-07T00:46:58.926Z,4.94
2023-01-07T00:49:25.722Z,5.14
2023-01-07T00:51:52.503Z,5.13
2023-01-07T00:54:19.222Z,5.13
2023-01-07T00:56:45.953Z,4.99
2023-01-07T00:59:12.654Z,4.95
2023-01-07T01:01:39.425Z,5.01
2023-01-07T01:04:08.344Z,4.81
2023-01-07T01:06:35.120Z,4.60
2023-01-07T01:09:02.404Z,4.70
2023-01-07T01:11:29.138Z,4.75
2023-01-07T01:13:55.883Z,4.65
2023-01-07T01:16:22.703Z,4.27
2023-01-07T01:18:49.419Z,4.33
2023-01-07T01:21:16.131Z,4.52
2023-01-07T01:23:43.374Z,3.99
2023-01-07T01:26:11.899Z,4.00
2023-01-07T01:28:39.106Z,3.85
2023-01-07T01:31:06.018Z,3.09
2023-01-07T01:33:32.786Z,3.35
2023-01-07T01:35:59.517Z,3.87
2023-01-07T01:38:26.153Z,4.09
2023-01-07T01:40:52.808Z,3.87
2023-01-07T01:43:30.311Z,3.65
2023-01-07T01:45:58.304Z,3.94
2023-01-07T01:48:25.565Z,4.13
2023-01-07T01:50:53.222Z,4.22
2023-01-07T01:53:20.119Z,3.99
2023-01-07T01:55:49.543Z,3.86
2023-01-07T01:58:18.397Z,2.76
2023-01-07T02:00:45.143Z,3.71
2023-01-07T02:03:13.548Z,3.92
2023-01-07T02:05:42.326Z,3.78
2023-01-07T02:08:09.731Z,3.80
2023-01-07T02:10:36.592Z,4.03
2023-01-07T02:13:09.638Z,3.95
2023-01-07T02:15:48.382Z,4.21
2023-01-07T02:18:18.239Z,3.99
2023-01-07T02:20:44.911Z,3.90
2023-01-07T02:23:11.519Z,3.63
2023-01-07T02:25:42.210Z,1.53
2023-01-07T02:28:12.046Z,2.89
2023-01-07T02:30:50.844Z,2.33
2023-01-07T02:33:22.890Z,2.30
2023-01-07T02:35:50.064Z,2.99
2023-01-07T02:38:35.112Z,1.80
2023-01-07T02:41:13.578Z,2.57
2023-01-07T02:43:48.824Z,2.19
2023-01-07T02:46:17.736Z,2.42
2023-01-07T02:48:45.875Z,2.95
2023-01-07T02:51:13.486Z,2.35
2023-01-07T02:53:42.751Z,3.13
2023-01-07T02:56:24.953Z,2.58
2023-01-07T02:59:10.568Z,2.91
2023-01-07T03:01:46.770Z,3.26
2023-01-07T03:04:26.333Z,3.56
2023-01-07T03:06:56.459Z,3.67
2023-01-07T03:09:45.108Z,3.70
2023-01-07T03:12:11.796Z,3.50
2023-01-07T03:14:50.528Z,3.70
2023-01-07T03:17:21.694Z,3.91
2023-01-07T03:19:56.069Z,3.82
2023-01-07T03:22:24.368Z,4.03
2023-01-07T03:24:52.444Z,3.85
2023-01-07T03:27:20.962Z,3.79
2023-01-07T03:29:52.746Z,4.03
2023-01-07T03:32:29.350Z,4.10
2023-01-07T03:34:59.202Z,4.03
2023-01-07T03:37:27.460Z,3.76
2023-01-07T03:39:54.577Z,3.40
2023-01-07T03:42:41.192Z,3.69
2023-01-07T03:45:17.946Z,3.73
2023-01-07T03:47:48.239Z,3.86
2023-01-07T03:50:15.721Z,3.70
2023-01-07T03:52:42.807Z,3.81
2023-01-07T03:55:11.158Z,3.62
2023-01-07T03:57:38.101Z,3.62
2023-01-07T04:00:06.763Z,3.53
2023-01-07T04:02:33.487Z,3.63
2023-01-07T04:05:00.575Z,3.75
2023-01-07T04:07:27.990Z,3.72
2023-01-07T04:09:58.060Z,3.81
2023-01-07T04:12:25.826Z,3.71
2023-01-07T04:14:52.542Z,3.71
2023-01-07T04:17:19.347Z,3.55
2023-01-07T04:19:46.241Z,3.59
2023-01-07T04:22:13.527Z,3.72
2023-01-07T04:24:40.270Z,3.73
2023-01-07T04:27:08.357Z,3.56
2023-01-07T04:29:38.125Z,3.78
2023-01-07T04:32:05.080Z,3.79
2023-01-07T04:34:31.957Z,3.58
2023-01-07T04:37:01.229Z,3.73
2023-01-07T04:39:28.082Z,3.77
2023-01-07T04:41:55.113Z,3.81
2023-01-07T04:44:21.962Z,3.69
2023-01-07T04:46:49.349Z,3.88
2023-01-07T04:49:16.867Z,3.64
2023-01-07T04:51:43.769Z,3.78
2023-01-07T04:54:10.851Z,3.56
2023-01-07T04:56:37.730Z,3.68
2023-01-07T04:59:04.458Z,3.67
2023-01-07T05:01:33.609Z,3.68
2023-01-07T05:04:07.016Z,3.52
2023-01-07T05:06:34.826Z,3.75
2023-01-07T05:09:01.758Z,3.68
2023-01-07T05:11:28.677Z,3.89
2023-01-07T05:13:57.775Z,3.80
2023-01-07T05:16:27.384Z,3.54
2023-01-07T05:18:55.306Z,3.66
2023-01-07T05:21:22.227Z,3.69
2023-01-07T05:23:49.120Z,3.68
2023-01-07T05:26:16.058Z,3.77
2023-01-07T05:28:43.288Z,3.54
2023-01-07T05:31:10.092Z,3.57
2023-01-07T05:33:38.263Z,3.61
2023-01-07T05:36:05.832Z,3.75
2023-01-07T05:38:34.680Z,3.43
2023-01-07T05:41:03.414Z,3.54
2023-01-07T05:43:31.025Z,3.60
2023-01-07T05:45:59.349Z,3.72
2023-01-07T05:48:26.507Z,3.40
2023-01-07T05:50:54.993Z,3.45
2023-01-07T05:53:21.702Z,3.54
2023-01-07T05:55:48.575Z,3.58
2023-01-07T05:58:15.739Z,3.61
2023-01-07T06:00:45.650Z,2.93
2023-01-07T06:03:12.849Z,2.92
2023-01-07T06:05:40.124Z,2.75
2023-01-07T06:08:06.957Z,3.00
2023-01-07T06:10:33.973Z,3.16
2023-01-07T06:13:02.454Z,3.36
2023-01-07T06:15:29.213Z,3.30
2023-01-07T06:17:56.647Z,3.10
2023-01-07T06:20:25.939Z,3.30
2023-01-07T06:22:55.228Z,3.15
2023-01-07T06:25:23.512Z,3.12
2023-01-07T06:27:50.253Z,2.92
2023-01-07T06:30:18.082Z,2.70
2023-01-07T06:32:44.996Z,3.18
2023-01-07T06:35:12.443Z,3.46
2023-01-07T06:37:40.075Z,3.35
2023-01-07T06:40:07.947Z,3.53
2023-01-07T06:42:35.072Z,3.52
2023-01-07T06:45:02.044Z,3.50
2023-01-07T06:47:29.001Z,3.70
2023-01-07T06:49:56.046Z,3.63
2023-01-07T06:52:23.867Z,3.61
2023-01-07T06:54:50.647Z,3.77
2023-01-07T06:57:17.633Z,3.80
2023-01-07T06:59:44.352Z,3.73
2023-01-07T07:02:23.192Z,3.68
2023-01-07T07:04:50.099Z,3.39
2023-01-07T07:07:17.494Z,3.51
2023-01-07T07:09:47.913Z,3.68
2023-01-07T07:12:14.862Z,3.45
2023-01-07T07:14:42.114Z,3.54
2023-01-07T07:17:09.744Z,3.44
2023-01-07T07:19:36.636Z,3.24
2023-01-07T07:22:04.902Z,3.28
2023-01-07T07:24:32.093Z,3.64
2023-01-07T07:27:00.861Z,3.77
2023-01-07T07:29:27.934Z,3.44
2023-01-07T07:32:04.447Z,3.69
2023-01-07T07:34:31.201Z,3.79
2023-01-07T07:36:59.213Z,4.12
2023-01-07T07:39:26.003Z,4.30
2023-01-07T07:41:53.625Z,4.35
2023-01-07T07:44:20.506Z,4.09
2023-01-07T07:46:48.188Z,3.84
2023-01-07T07:49:15.936Z,3.93
2023-01-07T07:51:43.131Z,4.28
2023-01-07T07:54:11.440Z,3.97
2023-01-07T07:56:38.557Z,3.81
2023-01-07T07:59:05.680Z,4.46
2023-01-07T08:01:33.933Z,4.78
2023-01-07T08:04:02.587Z,5.01
2023-01-07T08:06:29.422Z,5.03
2023-01-07T08:08:56.913Z,5.07
2023-01-07T08:11:24.536Z,4.50
2023-01-07T08:13:51.285Z,4.66
2023-01-07T08:16:19.589Z,4.70
2023-01-07T08:18:46.801Z,4.91
2023-01-07T08:21:15.684Z,5.37
2023-01-07T08:23:44.654Z,5.44
2023-01-07T08:26:13.732Z,6.01
2023-01-07T08:28:40.576Z,6.37
2023-01-07T08:31:10.410Z,6.74
2023-01-07T08:33:41.618Z,6.97
2023-01-07T08:36:21.968Z,7.33
2023-01-07T08:38:50.570Z,7.78
2023-01-07T08:41:17.696Z,8.53
2023-01-07T08:43:45.569Z,8.91
2023-01-07T08:46:12.315Z,9.37
2023-01-07T08:48:40.484Z,10.01
2023-01-07T08:51:09.181Z,10.66
2023-01-07T08:53:36.001Z,11.01
2023-01-07T08:56:02.933Z,11.39
2023-01-07T08:58:33.401Z,11.79
2023-01-07T09:01:05.086Z,11.95
2023-01-07T09:03:32.120Z,12.19
2023-01-07T09:05:59.146Z,12.37
2023-01-07T09:08:27.949Z,12.64
2023-01-07T09:10:54.844Z,12.99
2023-01-07T09:13:21.588Z,13.19
2023-01-07T09:15:48.552Z,13.16
2023-01-07T09:18:15.821Z,12.95
2023-01-07T09:20:45.939Z,13.28
2023-01-07T09:23:14.760Z,13.61
2023-01-07T09:25:41.819Z,13.86
2023-01-07T09:28:12.132Z,14.18
2023-01-07T09:30:39.585Z,14.42
2023-01-07T09:33:06.679Z,14.05
2023-01-07T09:35:33.915Z,14.06
2023-01-07T09:38:01.499Z,13.99
2023-01-07T09:40:39.358Z,13.79
2023-01-07T09:43:25.939Z,13.82
2023-01-07T09:46:15.288Z,13.72
2023-01-07T09:48:45.530Z,13.77
2023-01-07T09:51:22.160Z,14.30
2023-01-07T09:53:50.703Z,14.20
2023-01-07T09:56:25.450Z,14.28
2023-01-07T09:58:52.467Z,14.28
2023-01-07T10:01:36.293Z,14.54
2023-01-07T10:04:21.699Z,14.19
2023-01-07T10:06:51.591Z,14.61
2023-01-07T10:09:21.439Z,14.51
2023-01-07T10:12:00.647Z,14.48
2023-01-07T10:14:27.323Z,15.00
2023-01-07T10:17:06.106Z,15.27
2023-01-07T10:19:38.759Z,15.36
2023-01-07T10:22:11.801Z,15.71
2023-01-07T10:24:43.512Z,15.47
2023-01-07T10:27:13.567Z,15.68
2023-01-07T10:29:46.211Z,15.68
2023-01-07T10:32:17.890Z,15.65
2023-01-07T10:34:46.541Z,15.64
2023-01-07T10:37:23.939Z,15.86
2023-01-07T10:40:13.684Z,15.69
2023-01-07T10:42:56.889Z,15.94
2023-01-07T10:45:29.783Z,16.02
2023-01-07T10:48:17.057Z,15.78
2023-01-07T10:50:46.140Z,16.02
2023-01-07T10:53:19.391Z,16.09
2023-01-07T10:55:46.821Z,16.03
2023-01-07T10:58:14.758Z,16.36
2023-01-07T11:00:47.001Z,16.49
2023-01-07T11:03:18.751Z,16.57
2023-01-07T11:05:49.012Z,16.39
2023-01-07T11:08:27.819Z,16.21
2023-01-07T11:10:54.611Z,16.33
2023-01-07T11:13:30.810Z,16.70
2023-01-07T11:16:03.012Z,16.88
2023-01-07T11:18:54.710Z,16.84
2023-01-07T11:21:44.814Z,16.68
2023-01-07T11:24:31.544Z,16.37
2023-01-07T11:27:03.182Z,16.33
2023-01-07T11:29:44.049Z,16.62
2023-01-07T11:32:28.968Z,16.67
2023-01-07T11:34:57.250Z,16.61
2023-01-07T11:37:38.750Z,16.66
2023-01-07T11:40:12.357Z,16.75
2023-01-07T11:42:54.064Z,16.80
2023-01-07T11:45:23.416Z,16.79
2023-01-07T11:48:02.767Z,17.00
2023-01-07T11:50:29.798Z,17.18
2023-01-07T11:53:17.209Z,17.18
2023-01-07T11:56:08.846Z,17.33
2023-01-07T11:58:39.483Z,17.70
2023-01-07T12:01:09.634Z,17.36
2023-01-07T12:03:37.125Z,17.26
2023-01-07T12:06:07.875Z,16.78
2023-01-07T12:08:35.650Z,17.16
2023-01-07T12:11:07.329Z,17.27
2023-01-07T12:13:35.085Z,17.20
2023-01-07T12:16:07.304Z,17.17
2023-01-07T12:18:40.805Z,17.20
2023-01-07T12:21:17.532Z,17.44
2023-01-07T12:24:00.005Z,17.08
2023-01-07T12:26:31.892Z,17.00
2023-01-07T12:29:39.157Z,17.13
2023-01-07T12:32:06.424Z,17.08
2023-01-07T12:34:33.555Z,17.28
2023-01-07T12:37:01.779Z,16.94
2023-01-07T12:39:34.794Z,16.73
2023-01-07T12:42:04.773Z,16.80
2023-01-07T12:44:32.074Z,16.74
2023-01-07T12:47:31.764Z,17.01
2023-01-07T12:49:54.492Z,16.98
2023-01-07T12:52:40.233Z,17.14
2023-01-07T12:55:21.137Z,17.06
2023-01-07T12:58:01.185Z,16.61
2023-01-07T13:00:31.712Z,17.09
2023-01-07T13:03:17.272Z,16.59
2023-01-07T13:05:49.021Z,16.55
2023-01-07T13:08:34.622Z,16.59
2023-01-07T13:11:12.754Z,16.47
2023-01-07T13:13:42.217Z,16.29
2023-01-07T13:16:12.222Z,16.06
2023-01-07T13:18:39.260Z,14.27
2023-01-07T13:21:06.752Z,13.23
2023-01-07T13:23:37.238Z,13.96
2023-01-07T13:26:19.174Z,13.71
2023-01-07T13:28:51.950Z,12.26
2023-01-07T13:31:19.199Z,12.00
2023-01-07T13:34:02.515Z,12.79
2023-01-07T13:36:39.953Z,12.66
2023-01-07T13:39:19.393Z,11.37
2023-01-07T13:41:52.137Z,10.32
2023-01-07T13:44:18.892Z,10.87
2023-01-07T13:46:47.390Z,10.62
2023-01-07T13:49:28.776Z,10.30
2023-01-07T13:51:57.040Z,10.34
2023-01-07T13:55:03.692Z,9.87
2023-01-07T13:57:30.591Z,9.86
2023-01-07T13:59:58.917Z,9.43
2023-01-07T14:02:29.241Z,9.47
2023-01-07T14:05:12.310Z,8.40
2023-01-07T14:07:58.317Z,8.73
2023-01-07T14:10:33.135Z,8.67
2023-01-07T14:13:20.941Z,8.75
2023-01-07T14:16:06.688Z,8.84
2023-01-07T14:18:42.939Z,8.38
2023-01-07T14:21:28.674Z,9.04
2023-01-07T14:24:25.152Z,8.14
2023-01-07T14:26:51.872Z,8.93
2023-01-07T14:29:37.084Z,8.65
2023-01-07T14:32:27.727Z,9.20
2023-01-07T14:35:07.783Z,9.14
2023-01-07T14:37:36.442Z,8.90
2023-01-07T14:40:24.967Z,8.69
2023-01-07T14:42:54.170Z,8.58
2023-01-07T14:45:39.385Z,8.38
2023-01-07T14:48:10.191Z,8.39
2023-01-07T14:50:55.998Z,8.52
2023-01-07T14:53:25.458Z,8.80
2023-01-07T14:56:04.956Z,7.79
2023-01-07T14:58:32.886Z,8.31
2023-01-07T15:01:18.636Z,8.68
2023-01-07T15:03:48.435Z,8.06
2023-01-07T15:06:25.464Z,8.20
2023-01-07T15:09:23.366Z,7.63
2023-01-07T15:12:11.492Z,8.26
2023-01-07T15:15:03.221Z,8.42
2023-01-07T15:17:30.774Z,8.30
2023-01-07T15:19:59.781Z,8.55
2023-01-07T15:22:32.752Z,8.34
2023-01-07T15:25:07.282Z,8.11
2023-01-07T15:27:42.491Z,8.54
2023-01-07T15:30:10.652Z,8.55
2023-01-07T15:33:02.396Z,8.77
2023-01-07T15:35:33.068Z,7.86
2023-01-07T15:38:04.527Z,7.07
2023-01-07T15:40:31.838Z,7.50
2023-01-07T15:42:59.480Z,7.31
2023-01-07T15:45:28.370Z,8.06
2023-01-07T15:48:05.249Z,8.45
2023-01-07T15:50:34.173Z,8.43
2023-01-07T15:53:04.086Z,8.68
2023-01-07T15:55:38.238Z,8.34
2023-01-07T15:58:08.371Z,8.61
2023-01-07T16:00:35.890Z,8.87
2023-01-07T16:03:06.141Z,8.64
2023-01-07T16:05:33.392Z,8.93
2023-01-07T16:08:01.995Z,9.02
2023-01-07T16:10:35.952Z,8.66
2023-01-07T16:13:06.602Z,8.97
2023-01-07T16:15:36.164Z,8.96
2023-01-07T16:18:09.172Z,9.20
2023-01-07T16:20:38.221Z,9.08
2023-01-07T16:23:11.107Z,9.15
2023-01-07T16:25:40.822Z,9.14
2023-01-07T16:28:08.368Z,9.27
2023-01-07T16:30:39.211Z,8.38
2023-01-07T16:33:06.506Z,7.71
2023-01-07T16:35:34.967Z,8.49
2023-01-07T16:38:06.462Z,8.67
2023-01-07T16:40:37.202Z,8.63
2023-01-07T16:43:05.413Z,8.30
2023-01-07T16:45:33.553Z,7.74
2023-01-07T16:48:02.745Z,8.10
2023-01-07T16:50:31.964Z,7.98
2023-01-07T16:52:59.214Z,8.18
2023-01-07T16:55:46.841Z,7.54
2023-01-07T16:58:33.723Z,7.63
2023-01-07T17:01:01.980Z,7.42
2023-01-07T17:03:31.204Z,7.86
2023-01-07T17:06:06.660Z,7.73
2023-01-07T17:08:34.404Z,7.82
2023-01-07T17:11:08.940Z,8.08
2023-01-07T17:13:38.541Z,8.20
2023-01-07T17:16:23.655Z,8.15
2023-01-07T17:18:51.528Z,7.85
2023-01-07T17:21:34.656Z,7.95
2023-01-07T17:24:01.633Z,8.14
2023-01-07T17:26:28.962Z,7.75
2023-01-07T17:29:13.475Z,6.78
2023-01-07T17:31:43.290Z,7.43
2023-01-07T17:34:11.927Z,7.58
2023-01-07T17:36:40.313Z,7.63
2023-01-07T17:39:08.044Z,7.82
2023-01-07T17:41:54.925Z,7.48
2023-01-07T17:44:24.132Z,7.56
2023-01-07T17:46:52.470Z,7.78
2023-01-07T17:49:20.729Z,7.29
2023-01-07T17:51:48.811Z,7.82
2023-01-07T17:54:20.274Z,7.29
2023-01-07T17:56:48.110Z,7.35
2023-01-07T17:59:20.286Z,7.34
2023-01-07T18:01:47.924Z,7.64
2023-01-07T18:04:15.715Z,7.70
2023-01-07T18:06:46.694Z,7.33
2023-01-07T18:09:14.076Z,7.07
2023-01-07T18:12:04.701Z,6.77
2023-01-07T18:14:33.016Z,6.28
2023-01-07T18:17:00.869Z,6.88
2023-01-07T18:19:27.795Z,6.29
2023-01-07T18:21:58.727Z,6.89
2023-01-07T18:24:27.764Z,6.28
2023-01-07T18:26:56.944Z,6.14
2023-01-07T18:29:28.691Z,6.35
2023-01-07T18:31:56.603Z,6.11
2023-01-07T18:34:24.682Z,6.46
2023-01-07T18:36:54.433Z,6.09
2023-01-07T18:39:23.521Z,6.12
2023-01-07T18:41:50.664Z,6.86
2023-01-07T18:44:19.073Z,7.26
2023-01-07T18:46:46.638Z,6.68
2023-01-07T18:49:16.762Z,6.81
2023-01-07T18:51:45.352Z,6.28
2023-01-07T18:54:12.587Z,6.50
2023-01-07T18:56:42.722Z,6.36
2023-01-07T18:59:09.617Z,6.85
2023-01-07T19:01:37.014Z,7.07
2023-01-07T19:04:05.439Z,6.94
2023-01-07T19:06:32.951Z,7.24
2023-01-07T19:08:59.930Z,7.25
2023-01-07T19:11:31.118Z,7.46
2023-01-07T19:13:58.598Z,7.56
2023-01-07T19:16:25.638Z,7.68
2023-01-07T19:18:53.538Z,7.65
2023-01-07T19:21:21.817Z,7.66
2023-01-07T19:23:49.128Z,7.80
2023-01-07T19:26:16.717Z,7.66
2023-01-07T19:28:46.572Z,7.65
2023-01-07T19:31:14.215Z,7.76
2023-01-07T19:33:40.937Z,7.63
2023-01-07T19:36:09.943Z,7.58
2023-01-07T19:38:41.812Z,7.62
2023-01-07T19:41:13.212Z,7.65
2023-01-07T19:43:41.073Z,7.69
2023-01-07T19:46:08.636Z,7.63
2023-01-07T19:48:36.330Z,7.56
2023-01-07T19:51:04.429Z,7.45
2023-01-07T19:53:31.774Z,7.19
2023-01-07T19:56:02.876Z,7.21
2023-01-07T19:58:29.844Z,7.37
2023-01-07T20:01:03.303Z,7.23
2023-01-07T20:03:31.053Z,7.27
2023-01-07T20:06:12.024Z,7.24
2023-01-07T20:08:41.238Z,6.64
2023-01-07T20:11:08.571Z,6.85
2023-01-07T20:13:36.502Z,6.95
2023-01-07T20:16:07.618Z,6.87
2023-01-07T20:18:38.491Z,6.85
2023-01-07T20:21:07.334Z,6.74
2023-01-07T20:23:40.953Z,6.66
2023-01-07T20:26:16.251Z,6.59
2023-01-07T20:28:44.448Z,6.57
2023-01-07T20:31:15.755Z,6.68
2023-01-07T20:33:42.821Z,6.03
2023-01-07T20:36:14.231Z,6.19
2023-01-07T20:38:41.537Z,6.24
2023-01-07T20:41:10.039Z,6.17
2023-01-07T20:43:37.633Z,6.21
2023-01-07T20:46:05.707Z,6.26
2023-01-07T20:48:33.323Z,6.23
2023-01-07T20:51:00.240Z,6.14
2023-01-07T20:53:29.010Z,6.25
2023-01-07T20:55:56.947Z,5.74
2023-01-07T20:58:23.918Z,6.00
2023-01-07T21:00:50.811Z,5.92
2023-01-07T21:03:17.964Z,5.93
2023-01-07T21:05:46.217Z,6.00
2023-01-07T21:08:13.456Z,5.85
2023-01-07T21:10:46.978Z,5.82
2023-01-07T21:13:13.919Z,5.73
2023-01-07T21:15:40.966Z,5.73
2023-01-07T21:18:08.052Z,5.76
2023-01-07T21:20:37.850Z,5.68
2023-01-07T21:23:04.953Z,5.84
2023-01-07T21:25:31.724Z,5.64
2023-01-07T21:27:58.821Z,5.77
2023-01-07T21:30:28.299Z,5.80
2023-01-07T21:32:56.519Z,5.62
2023-01-07T21:35:26.820Z,5.68
2023-01-07T21:37:54.710Z,5.62
2023-01-07T21:40:21.727Z,5.67
2023-01-07T21:42:48.549Z,5.59
2023-01-07T21:45:15.527Z,5.46
2023-01-07T21:47:42.960Z,5.16
2023-01-07T21:50:09.932Z,5.39
2023-01-07T21:52:36.783Z,5.48
2023-01-07T21:55:06.029Z,5.42
2023-01-07T21:57:36.226Z,4.85
2023-01-07T22:00:05.992Z,5.04
2023-01-07T22:02:32.789Z,5.09
2023-01-07T22:05:00.536Z,4.97
2023-01-07T22:07:27.792Z,5.21
2023-01-07T22:09:56.383Z,5.21
2023-01-07T22:12:26.849Z,5.21
2023-01-07T22:14:55.035Z,4.76
2023-01-07T22:17:26.231Z,5.15
2023-01-07T22:19:53.653Z,4.82
2023-01-07T22:22:21.160Z,5.02
2023-01-07T22:24:50.690Z,4.95
2023-01-07T22:27:18.623Z,4.69
2023-01-07T22:29:45.672Z,4.67
2023-01-07T22:32:13.731Z,4.65
2023-01-07T22:35:00.913Z,4.66
2023-01-07T22:37:30.114Z,4.46
2023-01-07T22:39:59.081Z,4.65
2023-01-07T22:42:45.604Z,3.77
2023-01-07T22:45:21.047Z,4.26
2023-01-07T22:47:50.601Z,4.35
2023-01-07T22:50:18.005Z,4.48
2023-01-07T22:52:47.028Z,4.32
2023-01-07T22:55:16.144Z,4.48
2023-01-07T22:57:45.875Z,4.53
2023-01-07T23:00:37.366Z,4.26
2023-01-07T23:03:04.219Z,4.13
2023-01-07T23:05:35.625Z,4.31
2023-01-07T23:10:44.206Z,4.60
2023-01-07T23:13:11.643Z,4.16
2023-01-07T23:15:39.107Z,3.79
2023-01-07T23:18:08.535Z,4.04
2023-01-07T23:20:38.513Z,4.10
2023-01-07T23:23:05.622Z,4.22
2023-01-07T23:25:33.830Z,4.20
2023-01-07T23:28:01.413Z,4.42
2023-01-07T23:30:28.290Z,4.31
2023-01-07T23:32:55.024Z,4.31
2023-01-07T23:35:31.681Z,4.53
2023-01-07T23:37:58.796Z,4.24
2023-01-07T23:40:26.023Z,3.50
2023-01-07T23:42:53.437Z,4.17
2023-01-07T23:45:24.781Z,4.25
2023-01-07T23:47:51.531Z,3.55
2023-01-07T23:50:18.584Z,4.00
2023-01-07T23:52:45.295Z,3.86
2023-01-07T23:55:19.017Z,3.91
2023-01-07T23:57:46.041Z,4.01
